Time;durP1;ratioP1;P1;durP2;ratioP2;P2;SDS_P1;SDS_P2;PMS_P1;PMS_P2;Temp;Humidity;BMP_temperature;BMP_pressure;BME280_temperature;BME280_humidity;BME280_pressure;Samples;Min_cycle;Max_cycle;Signal;HPM_P1;HPM_P2
2020/12/20 00:00:49;;;;;;;90.15;49.53;;;3.60;99.90;;;;;;5038309;28;20042;-78
2020/12/20 00:03:16;;;;;;;88.40;53.30;;;3.60;99.90;;;;;;5044743;28;20027;-78
2020/12/20 00:05:41;;;;;;;81.93;49.85;;;3.60;99.90;;;;;;5044096;28;20065;-78
2020/12/20 00:08:07;;;;;;;91.30;54.05;;;3.60;99.90;;;;;;5044576;28;20128;-78
2020/12/20 00:10:33;;;;;;;89.13;55.80;;;3.60;99.90;;;;;;5028938;28;20111;-71
2020/12/20 00:12:58;;;;;;;91.45;56.38;;;3.60;99.90;;;;;;5025320;28;20068;-78
2020/12/20 00:15:25;;;;;;;80.45;48.90;;;3.50;99.90;;;;;;5035755;28;20116;-71
2020/12/20 00:17:51;;;;;;;75.43;47.42;;;3.50;99.90;;;;;;5044829;28;20116;-77
2020/12/20 00:20:17;;;;;;;82.65;51.88;;;3.60;99.90;;;;;;5043166;28;20029;-78
2020/12/20 00:22:44;;;;;;;65.72;41.78;;;3.60;99.90;;;;;;5044862;28;20036;-78
2020/12/20 00:25:10;;;;;;;73.32;42.33;;;3.60;99.90;;;;;;5035901;28;20034;-78
2020/12/20 00:27:36;;;;;;;77.72;43.92;;;3.50;99.90;;;;;;5024832;28;20033;-78
2020/12/20 00:30:03;;;;;;;69.75;43.28;;;3.50;99.90;;;;;;5027846;28;20029;-78
2020/12/20 00:32:29;;;;;;;85.55;46.45;;;3.60;99.90;;;;;;5044450;28;20032;-77
2020/12/20 00:34:55;;;;;;;57.10;37.10;;;3.60;99.90;;;;;;5042045;28;20025;-78
2020/12/20 00:37:21;;;;;;;58.85;37.20;;;3.70;99.90;;;;;;5044925;28;20041;-78
2020/12/20 00:39:46;;;;;;;57.63;34.83;;;3.70;99.90;;;;;;5047551;28;20029;-78
2020/12/20 00:42:12;;;;;;;64.78;40.03;;;3.70;99.90;;;;;;5047106;28;20384;-78
2020/12/20 00:44:39;;;;;;;51.80;33.63;;;3.70;99.90;;;;;;5048002;28;20033;-78
2020/12/20 00:47:05;;;;;;;62.45;38.38;;;3.80;99.90;;;;;;5030484;28;20567;-78
2020/12/20 00:49:33;;;;;;;53.55;34.35;;;3.80;99.90;;;;;;5027744;28;20075;-78
2020/12/20 00:52:01;;;;;;;57.67;35.35;;;3.80;99.90;;;;;;5040411;28;20057;-78
2020/12/20 00:54:27;;;;;;;64.43;39.88;;;3.80;99.90;;;;;;5047183;28;20025;-78
2020/12/20 00:56:53;;;;;;;63.50;38.65;;;3.80;99.90;;;;;;5039624;28;20162;-77
2020/12/20 00:59:19;;;;;;;63.33;40.42;;;3.80;99.90;;;;;;5027748;28;20026;-78
2020/12/20 01:01:45;;;;;;;55.22;35.17;;;3.70;99.90;;;;;;5027286;28;20033;-78
2020/12/20 01:04:11;;;;;;;55.90;35.08;;;3.60;99.90;;;;;;5028265;28;20540;-78
2020/12/20 01:06:37;;;;;;;61.35;37.30;;;3.70;99.90;;;;;;5027338;28;20128;-71
2020/12/20 01:09:03;;;;;;;58.13;35.53;;;3.60;99.90;;;;;;5028770;28;20022;-71
2020/12/20 01:11:29;;;;;;;60.28;35.40;;;3.70;99.90;;;;;;5027466;28;20121;-71
2020/12/20 01:13:55;;;;;;;55.55;36.28;;;3.70;99.90;;;;;;5027077;28;20471;-78
2020/12/20 01:16:25;;;;;;;69.95;42.33;;;3.70;99.90;;;;;;5026886;28;20053;-78
2020/12/20 01:18:51;;;;;;;74.43;43.90;;;3.70;99.90;;;;;;5026784;28;20084;-78
2020/12/20 01:21:17;;;;;;;61.38;37.70;;;3.70;99.90;;;;;;5027187;28;20472;-78
2020/12/20 01:23:44;;;;;;;54.05;33.97;;;3.70;99.90;;;;;;5026042;28;20380;-78
2020/12/20 01:26:10;;;;;;;47.65;32.28;;;3.70;99.90;;;;;;5027373;28;20037;-78
2020/12/20 01:28:35;;;;;;;60.42;35.53;;;3.80;99.90;;;;;;5025474;28;20416;-78
2020/12/20 01:31:04;;;;;;;53.05;34.45;;;3.70;99.90;;;;;;5027448;28;20232;-78
2020/12/20 01:33:30;;;;;;;69.00;35.60;;;3.70;99.90;;;;;;5028735;28;20127;-77
2020/12/20 01:35:56;;;;;;;66.70;40.90;;;3.70;99.90;;;;;;5047443;28;20534;-77
2020/12/20 01:38:22;;;;;;;52.13;34.80;;;3.70;99.90;;;;;;5045671;28;20029;-78
2020/12/20 01:40:52;;;;;;;68.15;40.13;;;3.70;99.90;;;;;;5047505;28;20080;-78
2020/12/20 01:43:18;;;;;;;65.80;40.78;;;3.70;99.90;;;;;;5046388;28;20033;-78
2020/12/20 01:45:44;;;;;;;66.80;35.80;;;3.70;99.90;;;;;;5046360;28;20048;-78
2020/12/20 01:48:11;;;;;;;56.88;37.38;;;3.70;99.90;;;;;;5046298;28;20082;-78
2020/12/20 01:50:37;;;;;;;69.10;43.63;;;3.60;99.90;;;;;;5045571;28;20037;-78
2020/12/20 01:53:04;;;;;;;59.63;35.50;;;3.60;99.90;;;;;;5046512;28;20047;-78
2020/12/20 01:55:31;;;;;;;67.57;41.38;;;3.70;99.90;;;;;;5045027;28;20455;-78
2020/12/20 01:57:57;;;;;;;56.17;35.15;;;3.70;99.90;;;;;;5046213;28;20044;-78
2020/12/20 02:00:23;;;;;;;53.65;34.67;;;3.70;99.90;;;;;;5034601;28;20056;-78
2020/12/20 02:02:49;;;;;;;54.08;35.05;;;3.60;99.90;;;;;;5027046;28;20026;-72
2020/12/20 02:05:15;;;;;;;59.42;35.55;;;3.70;99.90;;;;;;5026414;28;20105;-78
2020/12/20 02:07:41;;;;;;;63.35;36.92;;;3.60;99.90;;;;;;5026921;28;20073;-78
2020/12/20 02:10:07;;;;;;;67.15;40.80;;;3.60;99.90;;;;;;5025427;28;20055;-78
2020/12/20 02:12:33;;;;;;;59.05;36.08;;;3.70;99.90;;;;;;5026927;28;20032;-77
2020/12/20 02:14:58;;;;;;;55.95;33.60;;;3.70;99.90;;;;;;5028064;28;20029;-78
2020/12/20 02:17:24;;;;;;;65.63;39.65;;;3.70;99.90;;;;;;5046728;28;20033;-78
2020/12/20 02:19:49;;;;;;;46.28;31.77;;;3.60;99.90;;;;;;5045847;28;20040;-71
2020/12/20 02:22:15;;;;;;;56.90;36.80;;;3.60;99.90;;;;;;5046215;28;20087;-78
2020/12/20 02:24:42;;;;;;;58.03;36.95;;;3.70;99.90;;;;;;5045927;28;20033;-78
2020/12/20 02:27:08;;;;;;;47.10;31.25;;;3.60;99.90;;;;;;5044301;28;20041;-77
2020/12/20 02:29:34;;;;;;;49.28;31.48;;;3.70;99.90;;;;;;5045225;28;20025;-71
2020/12/20 02:32:00;;;;;;;53.20;33.25;;;3.70;99.90;;;;;;5038036;28;20032;-78
2020/12/20 02:34:26;;;;;;;51.63;33.83;;;3.70;99.90;;;;;;5045941;28;20395;-78
2020/12/20 02:36:52;;;;;;;52.83;32.55;;;3.70;99.90;;;;;;5043597;28;20033;-78
2020/12/20 02:39:18;;;;;;;50.60;32.65;;;3.70;99.90;;;;;;5046092;28;20037;-78
2020/12/20 02:41:44;;;;;;;50.78;32.45;;;3.70;99.90;;;;;;5045461;28;20507;-78
2020/12/20 02:44:10;;;;;;;46.95;30.85;;;3.70;99.90;;;;;;5039975;28;20036;-79
2020/12/20 02:46:35;;;;;;;51.78;30.08;;;3.70;99.90;;;;;;5045195;28;20083;-71
2020/12/20 02:49:01;;;;;;;65.85;38.60;;;3.70;99.90;;;;;;5027631;28;20479;-78
2020/12/20 02:51:28;;;;;;;46.95;30.23;;;3.60;99.90;;;;;;5025516;28;20054;-71
2020/12/20 02:53:54;;;;;;;48.67;30.75;;;3.50;99.90;;;;;;5024820;28;20480;-78
2020/12/20 02:56:20;;;;;;;54.33;33.17;;;3.50;99.90;;;;;;5025589;28;20040;-78
2020/12/20 02:58:49;;;;;;;59.67;35.90;;;3.50;99.90;;;;;;5024560;28;20056;-78
2020/12/20 03:01:15;;;;;;;57.15;35.92;;;3.40;99.90;;;;;;5025654;28;20122;-78
2020/12/20 03:03:41;;;;;;;54.05;31.73;;;3.50;99.90;;;;;;5034497;28;20109;-71
2020/12/20 03:06:07;;;;;;;47.55;32.17;;;3.50;99.90;;;;;;5044925;28;20080;-78
2020/12/20 03:08:33;;;;;;;45.47;29.27;;;3.50;99.90;;;;;;5040050;28;20076;-78
2020/12/20 03:10:59;;;;;;;48.20;32.17;;;3.50;99.90;;;;;;5025727;28;20057;-71
2020/12/20 03:13:25;;;;;;;47.92;31.67;;;3.40;99.90;;;;;;5023905;28;20440;-77
2020/12/20 03:15:50;;;;;;;51.95;34.78;;;3.40;99.90;;;;;;5025843;28;20029;-78
2020/12/20 03:18:16;;;;;;;50.10;31.50;;;3.50;99.90;;;;;;5026270;28;20037;-78
2020/12/20 03:20:42;;;;;;;48.08;32.08;;;3.50;99.90;;;;;;5045958;28;20037;-71
2020/12/20 03:23:07;;;;;;;48.30;30.30;;;3.50;99.90;;;;;;5044677;28;20476;-71
2020/12/20 03:25:33;;;;;;;43.13;28.67;;;3.40;99.90;;;;;;5025481;28;20044;-78
2020/12/20 03:27:59;;;;;;;45.97;28.60;;;3.50;99.90;;;;;;5024473;28;20427;-78
2020/12/20 03:30:25;;;;;;;45.58;30.38;;;3.40;99.90;;;;;;5024090;28;20034;-78
2020/12/20 03:32:51;;;;;;;48.03;29.10;;;3.30;99.90;;;;;;5024895;28;20029;-77
2020/12/20 03:35:17;;;;;;;59.15;35.47;;;3.30;99.90;;;;;;5024226;28;20063;-77
2020/12/20 03:37:51;;;;;;;48.92;30.80;;;3.20;99.90;;;;;;5025070;28;20112;-78
2020/12/20 03:40:18;;;;;;;54.80;32.22;;;3.30;99.90;;;;;;5038162;28;20094;-78
2020/12/20 03:42:46;;;;;;;45.60;29.20;;;3.30;99.90;;;;;;5045283;28;20064;-71
2020/12/20 03:45:13;;;;;;;72.72;39.55;;;3.30;99.90;;;;;;5031739;28;20037;-77
2020/12/20 03:47:38;;;;;;;44.25;29.70;;;3.20;99.90;;;;;;5025217;28;20034;-71
2020/12/20 03:50:04;;;;;;;43.70;30.20;;;3.20;99.90;;;;;;5032660;28;20079;-78
2020/12/20 03:52:30;;;;;;;48.28;30.35;;;3.20;99.90;;;;;;5044267;28;20382;-78
2020/12/20 03:54:55;;;;;;;52.05;32.28;;;3.20;99.90;;;;;;5043390;28;20075;-78
2020/12/20 03:57:21;;;;;;;47.85;30.60;;;3.10;99.90;;;;;;5044732;28;20041;-78
2020/12/20 03:59:46;;;;;;;45.25;29.85;;;3.10;99.90;;;;;;5043709;28;20040;-71
2020/12/20 04:02:12;;;;;;;67.15;38.92;;;3.10;99.90;;;;;;5045143;28;20411;-78
2020/12/20 04:04:38;;;;;;;54.47;31.15;;;3.10;99.90;;;;;;5042976;28;20488;-78
2020/12/20 04:07:03;;;;;;;50.47;33.80;;;3.10;99.90;;;;;;5045317;28;20037;-78
2020/12/20 04:09:29;;;;;;;49.65;31.92;;;3.20;99.90;;;;;;5044191;28;20316;-71
2020/12/20 04:11:55;;;;;;;56.33;35.30;;;3.20;99.90;;;;;;5045226;28;20119;-77
2020/12/20 04:14:20;;;;;;;44.33;30.02;;;3.20;99.90;;;;;;5048110;28;20033;-71
2020/12/20 04:16:46;;;;;;;58.50;32.80;;;3.20;99.90;;;;;;5048270;28;20039;-78
2020/12/20 04:19:12;;;;;;;45.00;29.85;;;3.20;99.90;;;;;;5048714;28;20079;-78
2020/12/20 04:21:37;;;;;;;61.15;36.85;;;3.20;99.90;;;;;;5047572;28;20056;-78
2020/12/20 04:24:03;;;;;;;49.63;32.92;;;3.20;99.90;;;;;;5048137;28;20364;-78
2020/12/20 04:26:29;;;;;;;48.72;31.67;;;3.10;99.90;;;;;;5047533;28;20033;-77
2020/12/20 04:28:54;;;;;;;62.00;36.72;;;3.10;99.90;;;;;;5039642;28;20029;-78
2020/12/20 04:31:20;;;;;;;41.35;29.00;;;3.20;99.90;;;;;;5028669;28;20034;-78
2020/12/20 04:33:46;;;;;;;43.80;28.92;;;3.20;99.90;;;;;;5027071;28;20419;-78
2020/12/20 04:36:12;;;;;;;40.53;26.63;;;3.20;99.90;;;;;;5028723;28;20036;-78
2020/12/20 04:38:38;;;;;;;46.25;29.75;;;3.20;99.90;;;;;;5026817;28;20108;-78
2020/12/20 04:41:03;;;;;;;39.88;28.02;;;3.30;99.90;;;;;;5027943;28;20037;-78
2020/12/20 04:43:31;;;;;;;43.80;28.17;;;3.30;99.90;;;;;;5027382;28;20033;-71
2020/12/20 04:45:57;;;;;;;49.80;32.08;;;3.30;99.90;;;;;;5027928;28;20115;-78
2020/12/20 04:48:34;;;;;;;54.15;33.60;;;3.20;99.90;;;;;;5027081;28;20091;-71
2020/12/20 04:51:01;;;;;;;47.33;29.33;;;3.20;99.90;;;;;;5027758;28;20029;-78
2020/12/20 04:53:28;;;;;;;51.25;33.28;;;3.20;99.90;;;;;;5036041;28;20037;-78
2020/12/20 04:56:00;;;;;;;55.30;34.90;;;3.20;99.90;;;;;;5032792;28;20040;-78
2020/12/20 04:58:26;;;;;;;67.55;37.85;;;3.20;99.90;;;;;;5033488;28;20032;-78
2020/12/20 05:00:52;;;;;;;54.47;33.40;;;3.20;99.90;;;;;;5026059;28;20033;-71
2020/12/20 05:03:18;;;;;;;59.47;37.33;;;3.10;99.90;;;;;;5026069;28;20394;-78
2020/12/20 05:05:44;;;;;;;51.30;33.40;;;3.20;99.90;;;;;;5026187;28;20147;-71
2020/12/20 05:08:13;;;;;;;54.80;33.28;;;3.10;99.90;;;;;;5045565;28;20365;-78
2020/12/20 05:13:08;;;;;;;54.75;31.52;;;3.30;99.90;;;;;;5066279;28;20060;-77
2020/12/20 05:15:34;;;;;;;54.80;34.55;;;3.20;99.90;;;;;;5065625;28;20377;-77
2020/12/20 05:18:11;;;;;;;52.50;33.85;;;3.30;99.90;;;;;;5046503;28;20109;-77
2020/12/20 05:20:47;;;;;;;45.53;30.92;;;3.40;99.90;;;;;;5047290;28;20363;-77
2020/12/20 05:23:14;;;;;;;51.67;33.92;;;3.40;99.90;;;;;;5049740;28;20034;-77
2020/12/20 05:25:41;;;;;;;49.00;31.13;;;3.40;99.90;;;;;;5067244;28;20566;-77
2020/12/20 05:28:14;;;;;;;46.65;31.42;;;3.40;99.90;;;;;;5064494;28;20036;-77
2020/12/20 05:30:42;;;;;;;52.08;33.63;;;3.30;99.90;;;;;;5047672;28;20029;-77
2020/12/20 05:33:08;;;;;;;44.92;29.88;;;3.40;99.90;;;;;;5046933;28;20032;-77
2020/12/20 05:35:35;;;;;;;48.75;31.88;;;3.40;99.90;;;;;;5063571;28;20171;-76
2020/12/20 05:38:01;;;;;;;52.83;33.33;;;3.40;99.90;;;;;;5066660;28;20037;-77
2020/12/20 05:40:33;;;;;;;45.60;30.85;;;3.40;99.90;;;;;;5048784;28;20029;-77
2020/12/20 05:43:08;;;;;;;48.42;31.65;;;3.50;99.90;;;;;;5047179;28;20069;-77
2020/12/20 05:45:37;;;;;;;52.33;31.45;;;3.40;99.90;;;;;;5063174;28;20028;-77
2020/12/20 05:48:15;;;;;;;55.55;34.65;;;3.50;99.90;;;;;;5066429;28;20040;-77
2020/12/20 05:50:51;;;;;;;56.20;36.22;;;3.50;99.90;;;;;;5049855;28;20134;-77
2020/12/20 05:53:25;;;;;;;42.83;29.33;;;3.40;99.90;;;;;;5046393;28;20033;-77
2020/12/20 05:55:51;;;;;;;45.42;31.58;;;3.40;99.90;;;;;;5046055;28;20032;-77
2020/12/20 05:58:17;;;;;;;61.42;39.15;;;3.40;99.90;;;;;;5045816;28;20040;-77
2020/12/20 06:00:46;;;;;;;55.97;34.10;;;3.40;99.90;;;;;;5049795;28;20033;-76
2020/12/20 06:03:13;;;;;;;47.13;32.47;;;3.30;99.90;;;;;;5066633;28;20032;-77
2020/12/20 06:05:39;;;;;;;48.20;30.77;;;3.30;99.90;;;;;;5065382;28;20503;-77
2020/12/20 06:08:11;;;;;;;54.95;36.70;;;3.30;99.90;;;;;;5065749;28;20436;-71
2020/12/20 06:10:44;;;;;;;65.28;41.45;;;3.40;99.90;;;;;;5056483;28;20548;-77
2020/12/20 06:13:19;;;;;;;55.33;36.95;;;3.40;99.90;;;;;;5052433;28;20025;-76
2020/12/20 06:15:52;;;;;;;58.75;40.78;;;3.40;99.90;;;;;;5051048;28;20928;-77
2020/12/20 06:18:37;;;;;;;;;;;3.40;99.90;;;;;;5052536;28;20060;-77
2020/12/20 06:21:03;;;;;;;57.85;38.42;;;3.40;99.90;;;;;;5046752;28;20099;-77
2020/12/20 06:23:34;;;;;;;54.53;38.22;;;3.30;99.90;;;;;;5048735;28;20257;-71
2020/12/20 06:26:03;;;;;;;62.47;40.47;;;3.20;99.90;;;;;;5050019;28;20159;-77
2020/12/20 06:28:31;;;;;;;70.65;44.13;;;3.30;99.90;;;;;;5046492;28;20033;-77
2020/12/20 06:30:58;;;;;;;54.78;36.78;;;3.30;99.90;;;;;;5054026;28;20020;-71
2020/12/20 06:33:27;;;;;;;74.95;42.60;;;3.40;99.90;;;;;;5050046;28;20068;-71
2020/12/20 06:35:54;;;;;;;54.83;37.42;;;3.40;99.90;;;;;;5056414;28;20025;-77
2020/12/20 06:38:22;;;;;;;69.22;47.00;;;3.40;99.90;;;;;;5045363;28;20437;-77
2020/12/20 06:40:49;;;;;;;58.83;36.88;;;3.40;99.90;;;;;;5058569;28;20044;-76
2020/12/20 06:43:26;;;;;;;71.32;46.85;;;3.40;99.90;;;;;;5048509;28;20095;-77
2020/12/20 06:45:51;;;;;;;69.78;42.35;;;3.40;99.90;;;;;;5052549;28;20132;-77
2020/12/20 06:48:32;;;;;;;60.47;37.50;;;3.40;99.90;;;;;;5047272;28;20531;-77
2020/12/20 06:50:58;;;;;;;56.67;37.67;;;3.40;99.90;;;;;;5050030;28;20029;-77
2020/12/20 06:53:46;;;;;;;58.75;39.00;;;3.50;99.90;;;;;;5054753;28;20040;-71
2020/12/20 06:56:19;;;;;;;85.25;50.05;;;3.50;99.90;;;;;;5046602;28;20056;-76
2020/12/20 06:58:46;;;;;;;72.20;46.67;;;3.50;99.90;;;;;;5049845;28;20041;-77
2020/12/20 07:01:34;;;;;;;62.42;41.78;;;3.50;99.90;;;;;;5052392;28;20049;-77
2020/12/20 07:04:00;;;;;;;62.22;40.28;;;3.50;99.90;;;;;;5053259;28;20107;-77
2020/12/20 07:06:26;;;;;;;56.42;39.00;;;3.50;99.90;;;;;;5053893;28;20175;-77
2020/12/20 07:09:00;;;;;;;116.53;60.33;;;3.50;99.90;;;;;;5049118;28;20476;-77
2020/12/20 07:11:27;;;;;;;70.18;42.72;;;3.40;99.90;;;;;;5047588;28;20057;-77
2020/12/20 07:13:57;;;;;;;73.80;43.47;;;3.40;99.90;;;;;;5052226;28;20426;-76
2020/12/20 07:16:39;;;;;;;76.85;44.85;;;3.40;99.90;;;;;;5052660;28;20033;-77
2020/12/20 07:19:06;;;;;;;74.90;44.05;;;3.50;99.90;;;;;;5050647;28;20032;-77
2020/12/20 07:21:53;;;;;;;65.25;41.03;;;3.50;99.90;;;;;;5054703;28;20398;-76
2020/12/20 07:24:20;;;;;;;75.20;42.97;;;3.50;99.90;;;;;;5050123;28;20037;-70
2020/12/20 07:26:48;;;;;;;96.70;51.17;;;3.50;99.90;;;;;;5060633;28;20067;-77
2020/12/20 07:29:14;;;;;;;128.80;58.58;;;3.50;99.90;;;;;;5052519;28;20035;-77
2020/12/20 07:31:40;;;;;;;119.57;53.22;;;3.50;99.90;;;;;;5048955;28;20037;-77
2020/12/20 07:34:07;;;;;;;110.20;53.20;;;3.50;99.90;;;;;;5050508;28;20447;-77
2020/12/20 07:36:34;;;;;;;118.75;54.33;;;3.50;99.90;;;;;;5053019;28;20518;-71
2020/12/20 07:39:00;;;;;;;103.80;53.45;;;3.50;99.90;;;;;;5047576;28;20040;-77
2020/12/20 07:41:26;;;;;;;292.27;83.75;;;3.50;99.90;;;;;;5049875;28;20076;-77
2020/12/20 07:43:53;;;;;;;136.15;58.08;;;3.50;99.90;;;;;;5057477;28;20483;-77
2020/12/20 07:46:20;;;;;;;208.82;69.38;;;3.60;99.90;;;;;;5052922;28;20048;-77
2020/12/20 07:48:46;;;;;;;133.98;55.63;;;3.60;99.90;;;;;;5060093;28;20028;-77
2020/12/20 07:51:13;;;;;;;143.60;54.45;;;3.50;99.90;;;;;;5053094;28;20041;-77
2020/12/20 07:53:49;;;;;;;231.13;66.28;;;3.50;99.90;;;;;;5053717;28;20409;-77
2020/12/20 07:56:21;;;;;;;141.43;61.63;;;3.40;99.90;;;;;;5056932;28;20048;-77
2020/12/20 07:58:47;;;;;;;;;;;3.50;99.90;;;;;;5051738;28;20028;-76
2020/12/20 08:01:14;;;;;;;125.07;57.53;;;3.60;99.90;;;;;;5053278;28;19921;-77
2020/12/20 08:03:39;;;;;;;88.78;48.47;;;3.50;99.90;;;;;;5057543;28;20033;-70
2020/12/20 08:06:09;;;;;;;123.05;56.25;;;3.50;99.90;;;;;;5054301;28;20426;-76
2020/12/20 08:08:35;;;;;;;155.70;63.80;;;3.60;99.90;;;;;;5052624;28;20045;-77
2020/12/20 08:11:18;;;;;;;351.33;84.93;;;3.60;99.90;;;;;;5054565;28;20249;-77
2020/12/20 08:13:52;;;;;;;91.45;51.92;;;3.60;99.90;;;;;;5055625;28;20116;-77
2020/12/20 08:16:27;;;;;;;130.82;55.83;;;3.60;99.90;;;;;;5050745;28;20049;-77
2020/12/20 08:18:54;;;;;;;96.90;51.25;;;3.60;99.90;;;;;;5051380;28;20028;-77
2020/12/20 08:21:27;;;;;;;100.25;51.92;;;3.60;99.90;;;;;;5055238;28;20043;-77
2020/12/20 08:23:56;;;;;;;117.82;58.53;;;3.70;99.90;;;;;;5059033;28;20419;-76
2020/12/20 08:26:32;;;;;;;227.10;90.78;;;3.70;99.90;;;;;;5049582;28;20606;-77
2020/12/20 08:28:58;;;;;;;205.95;67.13;;;3.80;99.90;;;;;;5050828;28;20025;-76
2020/12/20 08:31:30;;;;;;;107.93;54.10;;;3.80;99.90;;;;;;5048410;28;20103;-76
2020/12/20 08:33:57;;;;;;;291.70;67.57;;;3.80;99.90;;;;;;5052183;28;20025;-71
2020/12/20 08:36:23;;;;;;;195.02;64.68;;;3.80;99.90;;;;;;5056722;28;20345;-77
2020/12/20 08:38:49;;;;;;;72.70;45.90;;;3.80;99.90;;;;;;5051974;28;20045;-78
2020/12/20 08:41:25;;;;;;;80.70;45.90;;;3.80;99.90;;;;;;5057293;28;20115;-77
2020/12/20 08:44:09;;;;;;;96.65;50.38;;;3.90;99.90;;;;;;5053859;28;20036;-78
2020/12/20 08:46:43;;;;;;;200.43;68.20;;;3.90;99.90;;;;;;5059245;28;20040;-77
2020/12/20 08:49:11;;;;;;;156.93;59.63;;;4.00;99.90;;;;;;5051452;28;20032;-77
2020/12/20 08:51:37;;;;;;;113.82;51.60;;;4.00;99.90;;;;;;5054950;28;20415;-77
2020/12/20 08:54:03;;;;;;;94.45;47.53;;;4.10;99.90;;;;;;5057448;28;20063;-75
2020/12/20 08:56:28;;;;;;;195.40;61.00;;;4.20;99.90;;;;;;5047566;28;20460;-75
2020/12/20 08:58:58;;;;;;;89.70;45.92;;;4.10;99.90;;;;;;5051413;28;20075;-75
2020/12/20 09:01:26;;;;;;;93.47;48.53;;;4.10;99.90;;;;;;5054208;28;20071;-76
2020/12/20 09:03:53;;;;;;;118.45;53.42;;;4.20;99.90;;;;;;5051609;28;20025;-70
2020/12/20 09:06:18;;;;;;;80.13;43.95;;;4.20;99.90;;;;;;5048142;28;20032;-74
2020/12/20 09:08:44;;;;;;;87.60;45.08;;;4.20;99.90;;;;;;5052727;28;20032;-75
2020/12/20 09:11:26;;;;;;;92.65;48.80;;;4.20;99.90;;;;;;5056504;28;20063;-75
2020/12/20 09:13:51;;;;;;;94.37;51.87;;;4.30;99.90;;;;;;5056068;28;20035;-75
2020/12/20 09:16:17;;;;;;;92.60;44.85;;;4.40;99.90;;;;;;5047012;28;20029;-71
2020/12/20 09:18:43;;;;;;;88.38;48.90;;;4.50;99.90;;;;;;5052822;28;20074;-75
2020/12/20 09:21:09;;;;;;;90.30;45.92;;;4.50;99.90;;;;;;5053227;28;20032;-71
2020/12/20 09:23:34;;;;;;;77.55;42.88;;;4.60;99.90;;;;;;5059301;28;20037;-76
2020/12/20 09:26:02;;;;;;;65.88;39.60;;;4.60;99.90;;;;;;5052053;28;20521;-70
2020/12/20 09:28:32;;;;;;;72.30;42.72;;;4.60;99.90;;;;;;5050246;28;20025;-75
2020/12/20 09:31:11;;;;;;;71.53;43.70;;;4.60;99.90;;;;;;5055043;28;20404;-76
2020/12/20 09:33:36;;;;;;;71.93;43.53;;;4.60;99.90;;;;;;5054949;28;20035;-70
2020/12/20 09:36:15;;;;;;;76.32;45.63;;;4.60;99.90;;;;;;5059044;28;20383;-76
2020/12/20 09:38:45;;;;;;;78.93;47.30;;;4.70;99.90;;;;;;5047908;28;20419;-76
2020/12/20 09:41:15;;;;;;;60.40;39.92;;;4.80;99.90;;;;;;5048190;28;20036;-75
2020/12/20 09:43:41;;;;;;;62.63;37.85;;;4.80;99.90;;;;;;5050162;28;20036;-70
2020/12/20 09:46:08;;;;;;;79.38;45.72;;;4.80;99.90;;;;;;5047485;28;20032;-75
2020/12/20 09:48:34;;;;;;;60.53;36.90;;;4.90;99.90;;;;;;5053229;28;20040;-75
2020/12/20 09:51:00;;;;;;;67.60;42.80;;;4.90;99.90;;;;;;5048969;28;20031;-70
2020/12/20 09:53:25;;;;;;;73.18;45.03;;;5.00;99.90;;;;;;5053279;28;20459;-76
2020/12/20 09:55:51;;;;;;;65.28;41.47;;;5.00;99.90;;;;;;5057720;28;20029;-70
2020/12/20 09:58:17;;;;;;;63.40;40.85;;;5.00;99.90;;;;;;5047462;28;20032;-75
2020/12/20 10:00:44;;;;;;;65.93;41.78;;;5.00;99.90;;;;;;5048445;28;20499;-75
2020/12/20 10:03:11;;;;;;;63.67;42.53;;;5.10;99.90;;;;;;5048143;28;20060;-75
2020/12/20 10:05:39;;;;;;;59.42;39.42;;;5.10;99.90;;;;;;5052485;28;20030;-75
2020/12/20 10:08:06;;;;;;;71.05;44.85;;;5.20;99.90;;;;;;5053161;28;20368;-75
2020/12/20 10:10:31;;;;;;;74.22;46.50;;;5.30;99.90;;;;;;5055472;28;20033;-70
2020/12/20 10:12:57;;;;;;;76.40;46.13;;;5.20;99.90;;;;;;5051436;28;20475;-70
2020/12/20 10:15:24;;;;;;;87.68;52.53;;;5.20;99.90;;;;;;5052232;28;20089;-70
2020/12/20 10:17:51;;;;;;;73.38;45.95;;;5.30;99.90;;;;;;5048389;28;20389;-75
2020/12/20 10:20:17;;;;;;;64.18;41.72;;;5.30;99.90;;;;;;5049522;28;20025;-74
2020/12/20 10:22:42;;;;;;;67.03;45.42;;;5.40;99.90;;;;;;5052708;28;20529;-75
2020/12/20 10:25:08;;;;;;;69.90;44.30;;;5.40;99.90;;;;;;5048790;28;20791;-75
2020/12/20 10:27:34;;;;;;;56.22;37.35;;;5.50;99.90;;;;;;5052667;28;20043;-75
2020/12/20 10:29:59;;;;;;;51.13;36.83;;;5.40;99.90;;;;;;5051796;28;20053;-70
2020/12/20 10:32:25;;;;;;;45.25;31.83;;;5.40;99.90;;;;;;5053277;28;20041;-75
2020/12/20 10:34:51;;;;;;;44.38;29.98;;;5.40;99.90;;;;;;5049861;28;20170;-70
2020/12/20 10:37:16;;;;;;;41.53;27.08;;;5.50;99.90;;;;;;5050931;28;20464;-75
2020/12/20 10:39:42;;;;;;;39.33;25.67;;;5.40;99.90;;;;;;5052272;28;20602;-74
2020/12/20 10:42:12;;;;;;;38.38;25.60;;;5.50;99.90;;;;;;5060156;28;20045;-74
2020/12/20 10:44:38;;;;;;;35.85;23.38;;;5.50;99.90;;;;;;5057651;28;20025;-75
2020/12/20 10:47:04;;;;;;;38.60;24.58;;;5.50;99.90;;;;;;5049363;28;20040;-75
2020/12/20 10:49:30;;;;;;;38.72;26.27;;;5.50;99.90;;;;;;5052613;28;20029;-75
2020/12/20 10:51:56;;;;;;;41.15;26.23;;;5.60;99.90;;;;;;5056777;28;20037;-70
2020/12/20 10:54:23;;;;;;;34.15;24.08;;;5.60;99.90;;;;;;5051373;28;20056;-74
2020/12/20 10:56:49;;;;;;;39.60;27.33;;;5.70;99.90;;;;;;5050758;28;20063;-74
2020/12/20 10:59:15;;;;;;;41.25;28.60;;;5.70;99.90;;;;;;5048925;28;20393;-75
2020/12/20 11:01:41;;;;;;;38.08;27.05;;;5.80;99.90;;;;;;5046317;28;20467;-75
2020/12/20 11:04:07;;;;;;;39.95;26.95;;;5.80;99.90;;;;;;5052002;28;20070;-70
2020/12/20 11:06:33;;;;;;;39.10;25.75;;;5.80;99.90;;;;;;5051578;28;20040;-76
2020/12/20 11:08:59;;;;;;;38.58;26.20;;;5.90;99.90;;;;;;5056448;28;20024;-75
2020/12/20 11:11:29;;;;;;;38.13;26.60;;;5.90;99.90;;;;;;5048434;28;20053;-75
2020/12/20 11:13:55;;;;;;;40.00;24.55;;;5.90;99.90;;;;;;5058764;28;20021;-70
2020/12/20 11:16:21;;;;;;;35.97;22.77;;;6.00;99.90;;;;;;5050704;28;20048;-70
2020/12/20 11:18:47;;;;;;;35.38;24.10;;;6.00;99.90;;;;;;5044110;28;20107;-75
2020/12/20 11:21:14;;;;;;;35.42;25.17;;;6.00;99.90;;;;;;5053815;28;20295;-75
2020/12/20 11:23:41;;;;;;;37.90;25.08;;;5.90;99.90;;;;;;5051630;28;20033;-75
2020/12/20 11:26:17;;;;;;;34.63;20.92;;;6.00;99.90;;;;;;5059626;28;20488;-75
2020/12/20 11:28:44;;;;;;;34.35;22.83;;;6.10;99.90;;;;;;5049969;28;20397;-75
2020/12/20 11:31:12;;;;;;;35.13;22.67;;;6.10;99.90;;;;;;5054386;28;20440;-75
2020/12/20 11:33:38;;;;;;;34.67;21.73;;;6.20;99.90;;;;;;5046474;28;20044;-75
2020/12/20 11:36:04;;;;;;;35.65;22.40;;;6.20;99.90;;;;;;5054440;28;20029;-71
2020/12/20 11:38:31;;;;;;;33.83;22.88;;;6.20;99.90;;;;;;5052647;28;20047;-75
2020/12/20 11:40:57;;;;;;;29.10;21.02;;;6.40;99.90;;;;;;5048254;28;20349;-75
2020/12/20 11:43:23;;;;;;;29.90;21.00;;;6.40;99.90;;;;;;5047017;28;20053;-76
2020/12/20 11:45:50;;;;;;;28.75;19.75;;;6.50;99.90;;;;;;5050725;28;20152;-76
2020/12/20 11:48:15;;;;;;;30.55;19.20;;;6.60;99.90;;;;;;5047701;28;20648;-76
2020/12/20 11:50:41;;;;;;;30.70;18.63;;;6.60;99.90;;;;;;5048155;28;20485;-76
2020/12/20 11:53:07;;;;;;;29.17;19.48;;;6.50;99.90;;;;;;5051870;28;20052;-71
2020/12/20 11:55:33;;;;;;;27.58;17.60;;;6.60;99.90;;;;;;5044024;28;20032;-75
2020/12/20 11:58:00;;;;;;;21.55;16.00;;;6.60;99.90;;;;;;5042605;28;20036;-75
2020/12/20 12:00:28;;;;;;;29.27;18.60;;;6.70;99.90;;;;;;5044648;28;20100;-76
2020/12/20 12:02:54;;;;;;;28.40;17.75;;;6.80;99.90;;;;;;5049215;28;20443;-76
2020/12/20 12:05:20;;;;;;;25.55;18.00;;;6.80;99.90;;;;;;5046868;28;20527;-75
2020/12/20 12:07:46;;;;;;;30.88;17.40;;;6.80;99.90;;;;;;5043318;28;20120;-75
2020/12/20 12:10:14;;;;;;;28.73;18.63;;;6.80;99.90;;;;;;5046217;28;20028;-75
2020/12/20 12:12:40;;;;;;;30.13;17.30;;;6.70;99.90;;;;;;5048645;28;20159;-76
2020/12/20 12:15:05;;;;;;;29.35;18.33;;;6.70;99.90;;;;;;5047883;28;20021;-71
2020/12/20 12:17:31;;;;;;;30.90;17.98;;;6.70;99.90;;;;;;5045321;28;20546;-75
2020/12/20 12:19:57;;;;;;;26.25;16.92;;;6.80;99.90;;;;;;5055128;28;20017;-75
2020/12/20 12:22:23;;;;;;;29.25;19.63;;;6.90;99.90;;;;;;5053024;28;20475;-75
2020/12/20 12:24:49;;;;;;;35.42;21.92;;;6.90;99.90;;;;;;5054666;28;20037;-75
2020/12/20 12:27:14;;;;;;;33.40;21.77;;;6.90;99.90;;;;;;5051752;28;20036;-70
2020/12/20 12:29:40;;;;;;;32.42;20.80;;;7.00;99.90;;;;;;5052983;28;20111;-75
2020/12/20 12:32:06;;;;;;;36.88;22.95;;;7.00;99.90;;;;;;5049216;28;20474;-70
2020/12/20 12:34:32;;;;;;;28.25;18.60;;;7.10;99.90;;;;;;5056136;28;20584;-75
2020/12/20 12:36:57;;;;;;;30.33;19.70;;;7.20;99.90;;;;;;5057705;28;20039;-75
2020/12/20 12:39:23;;;;;;;29.02;17.95;;;7.30;99.90;;;;;;5059501;28;20051;-75